Terminal Aerodrome Forecast
Issued by NWS

Home | Current Version | Previous Version | Text Only | Print | Product List | Glossary On
Versions: 1 2 3 4 5 6 7 8 9 10 11 12 13 14 15 16 17 18 19 20 21 22 23 24 25 26
000
FTUS43 KGRB 130520
TAFMTW
TAF
KMTW 130520Z 1306/1406 23004KT P6SM SCT030 OVC060
      TEMPO 1308/1310 4SM -SN BKN300
     FM131000 17004KT 2SM -SN OVC035
     FM131200 09010KT 1SM -SN OVC013
     FM140200 01013G19KT 5SM -SHSN BKN028
     FM140400 36011G17KT P6SM -SHSN BKN040=

USA.gov is the U.S. government's official web portal to all federal, state and local government web resources and services.